Time;durP1;ratioP1;P1;durP2;ratioP2;P2;SDS_P1;SDS_P2;PMS_P1;PMS_P2;Temp;Humidity;BMP_temperature;BMP_pressure;BME280_temperature;BME280_humidity;BME280_pressure;Samples;Min_cycle;Max_cycle;Signal;HPM_P1;HPM_P2
2022/01/30 00:00:00;;;;;;;27.52;4.35;;;8.30;95.30;;;;;;4994283;28;20109;-77
2022/01/30 00:02:28;;;;;;;37.85;5.13;;;8.30;95.10;;;;;;4993764;28;20038;-78
2022/01/30 00:04:53;;;;;;;33.22;4.40;;;8.30;95.00;;;;;;4975060;28;20030;-78
2022/01/30 00:07:19;;;;;;;26.45;3.83;;;8.30;95.00;;;;;;4989567;28;20104;-79
2022/01/30 00:09:46;;;;;;;22.83;4.03;;;8.30;95.00;;;;;;4974496;28;20460;-80
2022/01/30 00:12:15;;;;;;;34.17;4.15;;;8.30;94.60;;;;;;4975202;28;20038;-78
2022/01/30 00:14:40;;;;;;;31.60;4.15;;;8.30;94.60;;;;;;4974276;28;20385;-80
2022/01/30 00:17:19;;;;;;;23.70;3.33;;;8.30;94.50;;;;;;4973943;28;20031;-78
2022/01/30 00:19:51;;;;;;;24.40;3.70;;;8.30;94.60;;;;;;4974074;28;20042;-80
2022/01/30 00:24:48;;;;;;;26.35;3.72;;;8.20;94.30;;;;;;4974412;28;20030;-78
2022/01/30 00:27:19;;;;;;;26.33;3.30;;;8.30;94.40;;;;;;4973478;28;20035;-77
2022/01/30 00:29:45;;;;;;;31.33;4.20;;;8.20;94.50;;;;;;4973451;28;20131;-77
2022/01/30 00:32:10;;;;;;;22.60;3.25;;;8.10;94.40;;;;;;4973949;28;20113;-79
2022/01/30 00:34:36;;;;;;;20.83;3.22;;;8.10;94.60;;;;;;4973558;28;20525;-79
2022/01/30 00:37:03;;;;;;;21.75;2.97;;;8.20;94.40;;;;;;4973748;28;20041;-79
2022/01/30 00:39:29;;;;;;;22.38;3.40;;;8.10;94.20;;;;;;4973641;28;20029;-80
2022/01/30 00:41:54;;;;;;;33.78;3.78;;;8.20;94.30;;;;;;4973904;28;20037;-80
2022/01/30 00:44:20;;;;;;;24.50;3.70;;;8.20;94.20;;;;;;4973625;28;20533;-77
2022/01/30 00:46:46;;;;;;;30.52;3.83;;;8.20;94.30;;;;;;4969111;28;20032;-80
2022/01/30 00:49:12;;;;;;;33.97;4.30;;;8.10;94.80;;;;;;4960513;28;20342;-77
2022/01/30 00:51:37;;;;;;;26.08;3.75;;;8.10;95.30;;;;;;4973406;28;20054;-80
2022/01/30 00:54:04;;;;;;;31.98;3.90;;;8.10;95.80;;;;;;4973734;28;20022;-79
2022/01/30 00:56:30;;;;;;;28.23;3.95;;;8.00;96.00;;;;;;4972448;28;20031;-78
2022/01/30 00:58:55;;;;;;;31.73;3.83;;;8.10;96.00;;;;;;4973251;28;20125;-77
2022/01/30 01:01:21;;;;;;;23.55;3.10;;;8.00;96.20;;;;;;4973077;28;20035;-77
2022/01/30 01:03:47;;;;;;;24.63;4.05;;;8.00;96.30;;;;;;4972099;28;20035;-77
2022/01/30 01:06:12;;;;;;;20.27;3.40;;;8.00;95.90;;;;;;4972492;28;20094;-78
2022/01/30 01:08:52;;;;;;;17.70;3.55;;;8.00;96.40;;;;;;4973251;28;20041;-78
2022/01/30 01:14:06;;;;;;;31.08;4.35;;;7.80;97.60;;;;;;4972973;28;20613;-78
2022/01/30 01:24:44;;;;;;;29.85;3.97;;;7.60;97.30;;;;;;4973060;28;20077;-78
2022/01/30 01:27:10;;;;;;;29.85;3.45;;;7.60;97.00;;;;;;4972775;28;20588;-78
2022/01/30 01:29:37;;;;;;;26.75;3.50;;;7.60;97.10;;;;;;4971474;28;20437;-78
2022/01/30 01:32:04;;;;;;;25.33;4.32;;;7.60;97.00;;;;;;4972557;28;20039;-78
2022/01/30 01:34:33;;;;;;;24.85;3.28;;;7.60;97.00;;;;;;4972230;28;20043;-78
2022/01/30 01:36:59;;;;;;;28.73;4.22;;;7.70;96.90;;;;;;4972672;28;20038;-80
2022/01/30 01:39:25;;;;;;;28.70;3.67;;;7.80;96.50;;;;;;4972987;28;20029;-78
2022/01/30 01:41:51;;;;;;;25.58;3.83;;;7.70;96.00;;;;;;4971915;28;20469;-79
2022/01/30 01:44:20;;;;;;;22.45;3.80;;;7.70;96.00;;;;;;4972804;28;20049;-79
2022/01/30 01:46:47;;;;;;;28.08;3.28;;;7.70;95.40;;;;;;4971448;28;20457;-78
2022/01/30 01:49:19;;;;;;;20.27;3.78;;;7.80;95.40;;;;;;4972336;28;20118;-79
2022/01/30 01:51:49;;;;;;;22.85;3.97;;;7.80;95.10;;;;;;4972472;28;20022;-77
2022/01/30 01:54:16;;;;;;;25.42;3.45;;;7.70;94.80;;;;;;4972907;28;20025;-79
2022/01/30 01:56:41;;;;;;;29.90;3.97;;;7.80;94.90;;;;;;4971281;28;20108;-79
2022/01/30 01:59:07;;;;;;;22.45;3.15;;;7.80;94.80;;;;;;4972305;28;20511;-77
2022/01/30 02:01:33;;;;;;;22.58;3.97;;;7.70;94.50;;;;;;4972348;28;20513;-78
2022/01/30 02:03:58;;;;;;;30.13;4.03;;;7.70;94.70;;;;;;4972432;28;20129;-77
2022/01/30 02:06:26;;;;;;;21.85;2.75;;;7.80;94.70;;;;;;4987157;28;20037;-77
2022/01/30 02:08:58;;;;;;;36.13;3.72;;;7.70;94.80;;;;;;4972757;28;20053;-77
2022/01/30 02:11:32;;;;;;;24.75;3.25;;;7.70;94.70;;;;;;4971410;28;20023;-77
2022/01/30 02:27:41;;;;;;;19.58;3.53;;;7.60;95.40;;;;;;4972011;28;20598;-78
2022/01/30 02:30:19;;;;;;;27.42;3.83;;;7.50;95.70;;;;;;4972431;28;20338;-77
2022/01/30 02:32:47;;;;;;;25.25;3.70;;;7.40;96.00;;;;;;4971986;28;20210;-77
2022/01/30 02:35:13;;;;;;;23.50;2.20;;;7.40;96.10;;;;;;4975084;28;20061;-79
2022/01/30 02:37:38;;;;;;;18.55;3.72;;;7.40;96.30;;;;;;4991677;28;20700;-77
2022/01/30 02:40:09;;;;;;;33.55;3.95;;;7.40;96.30;;;;;;4991563;28;20038;-77
2022/01/30 02:42:38;;;;;;;25.90;4.18;;;7.50;96.10;;;;;;4991423;28;20014;-77
2022/01/30 02:45:07;;;;;;;33.22;3.58;;;7.50;96.00;;;;;;4991931;28;20456;-79
2022/01/30 02:52:43;;;;;;;21.55;3.25;;;7.50;95.90;;;;;;4993456;28;20026;-78
2022/01/30 02:55:10;;;;;;;26.35;3.42;;;7.50;95.80;;;;;;4994056;28;20423;-79
2022/01/30 02:57:36;;;;;;;15.93;2.95;;;7.50;96.00;;;;;;4994856;28;20456;-77
2022/01/30 03:00:07;;;;;;;27.00;3.63;;;7.60;96.00;;;;;;4995185;28;20101;-77
2022/01/30 03:02:32;;;;;;;27.38;3.95;;;7.50;96.20;;;;;;4994874;28;20038;-77
2022/01/30 03:04:58;;;;;;;27.80;4.20;;;7.50;96.80;;;;;;4994710;28;20037;-79
2022/01/30 03:07:23;;;;;;;23.65;3.90;;;7.40;97.40;;;;;;4994624;28;20061;-80
2022/01/30 03:09:49;;;;;;;28.45;4.28;;;7.40;98.10;;;;;;4994582;28;20045;-78
2022/01/30 03:12:15;;;;;;;25.27;3.10;;;7.20;98.50;;;;;;5010231;28;20077;-77
2022/01/30 03:14:42;;;;;;;24.02;3.17;;;7.20;98.60;;;;;;4994352;28;20092;-77
2022/01/30 03:17:08;;;;;;;31.48;4.05;;;7.10;98.60;;;;;;5009966;28;20027;-79
2022/01/30 03:19:33;;;;;;;28.77;4.90;;;7.00;98.60;;;;;;4994412;28;20519;-78
2022/01/30 03:21:59;;;;;;;18.92;3.22;;;7.10;98.80;;;;;;5009712;28;20044;-77
2022/01/30 03:24:24;;;;;;;29.15;3.80;;;7.10;98.40;;;;;;4994332;28;20106;-80
2022/01/30 03:26:50;;;;;;;24.10;3.30;;;7.10;98.10;;;;;;4994668;28;20417;-79
2022/01/30 03:29:16;;;;;;;25.75;2.97;;;7.10;97.80;;;;;;5009682;28;20026;-77
2022/01/30 03:31:41;;;;;;;27.30;4.25;;;7.10;97.50;;;;;;4994190;28;20280;-77
2022/01/30 03:34:10;;;;;;;24.88;4.05;;;7.10;97.60;;;;;;4994339;28;20100;-78
2022/01/30 03:36:35;;;;;;;25.13;3.28;;;7.00;97.50;;;;;;4994656;28;20103;-77
2022/01/30 03:39:01;;;;;;;31.42;4.75;;;7.10;97.40;;;;;;5010086;28;20048;-78
2022/01/30 03:41:27;;;;;;;29.70;4.18;;;7.10;97.20;;;;;;5009370;28;20065;-79
2022/01/30 03:43:53;;;;;;;21.55;3.40;;;7.10;96.90;;;;;;4994051;28;20350;-78
2022/01/30 03:46:20;;;;;;;24.58;3.58;;;7.10;96.90;;;;;;5009107;28;20415;-78
2022/01/30 03:48:46;;;;;;;26.05;4.25;;;7.10;97.00;;;;;;4993976;28;20030;-79
2022/01/30 03:51:11;;;;;;;22.90;3.17;;;7.20;96.80;;;;;;4994269;28;20041;-77
2022/01/30 03:53:37;;;;;;;21.83;3.00;;;7.10;96.90;;;;;;4994247;28;20027;-77
2022/01/30 03:56:03;;;;;;;33.53;3.65;;;7.20;96.90;;;;;;4993698;28;20412;-78
2022/01/30 03:58:29;;;;;;;30.52;4.53;;;7.20;96.80;;;;;;5009048;28;20026;-80
2022/01/30 04:00:55;;;;;;;28.08;3.88;;;7.20;96.70;;;;;;4993679;28;20026;-79
2022/01/30 04:03:20;;;;;;;19.20;3.88;;;7.20;96.80;;;;;;4993494;28;20088;-79
2022/01/30 04:05:46;;;;;;;19.92;3.50;;;7.20;96.40;;;;;;5009075;28;20124;-80
2022/01/30 04:08:12;;;;;;;27.40;3.08;;;7.20;96.30;;;;;;5008667;28;20056;-79
2022/01/30 04:10:38;;;;;;;21.10;2.97;;;7.20;96.20;;;;;;4993896;28;20041;-78
2022/01/30 04:13:04;;;;;;;22.55;3.13;;;7.20;96.40;;;;;;4993657;28;20040;-78
2022/01/30 04:15:30;;;;;;;18.35;2.47;;;7.20;96.40;;;;;;4993503;28;20353;-77
2022/01/30 04:17:56;;;;;;;17.65;3.25;;;7.10;96.50;;;;;;4994029;28;20022;-79
2022/01/30 04:20:22;;;;;;;32.38;4.03;;;7.10;96.70;;;;;;4993469;28;20030;-78
2022/01/30 04:22:48;;;;;;;25.75;3.65;;;7.10;97.00;;;;;;4993444;28;20041;-79
2022/01/30 04:25:13;;;;;;;28.85;3.33;;;7.10;96.70;;;;;;4993254;28;20066;-77
2022/01/30 04:27:39;;;;;;;26.52;3.97;;;7.10;96.60;;;;;;5008299;28;20113;-79
2022/01/30 04:30:06;;;;;;;24.05;4.07;;;7.10;96.70;;;;;;4993775;28;20085;-77
2022/01/30 04:32:33;;;;;;;17.05;3.15;;;7.10;96.70;;;;;;4993464;28;20109;-78
2022/01/30 04:35:01;;;;;;;22.13;3.75;;;7.10;96.80;;;;;;5008628;28;20042;-78
2022/01/30 04:37:56;;;;;;;21.40;3.00;;;7.00;96.80;;;;;;4993423;28;20038;-78
2022/01/30 05:02:08;;;;;;;31.33;4.47;;;6.80;96.80;;;;;;4992409;28;20056;-76
2022/01/30 05:05:05;;;;;;;32.63;5.60;;;6.90;97.00;;;;;;5007728;28;20065;-77
2022/01/30 05:07:33;;;;;;;24.27;3.90;;;6.70;96.70;;;;;;4991307;28;20372;-77
2022/01/30 05:09:59;;;;;;;31.63;4.53;;;6.70;96.70;;;;;;4992756;28;20121;-77
2022/01/30 05:12:31;;;;;;;20.70;4.85;;;6.70;96.80;;;;;;4992582;28;20110;-76
2022/01/30 05:14:57;;;;;;;28.85;4.18;;;6.70;97.10;;;;;;4991868;28;20026;-77
2022/01/30 05:17:23;;;;;;;27.05;4.13;;;6.60;97.30;;;;;;4992754;28;20026;-77
2022/01/30 05:19:49;;;;;;;35.25;4.55;;;6.60;97.50;;;;;;4992594;28;20038;-78
2022/01/30 05:22:14;;;;;;;32.95;4.60;;;6.50;97.70;;;;;;4991462;28;20033;-78
2022/01/30 05:24:40;;;;;;;27.08;3.90;;;6.60;97.80;;;;;;4991604;28;20088;-78
2022/01/30 05:27:06;;;;;;;38.13;4.35;;;6.50;97.80;;;;;;4991454;28;20404;-78
2022/01/30 05:29:32;;;;;;;29.17;4.78;;;6.60;97.90;;;;;;4992337;28;20034;-78
2022/01/30 05:31:58;;;;;;;34.83;4.07;;;6.50;97.90;;;;;;4992117;28;20037;-77
2022/01/30 05:34:24;;;;;;;24.50;3.72;;;6.50;97.90;;;;;;4992107;28;20042;-78
2022/01/30 05:36:51;;;;;;;31.73;4.57;;;6.50;98.00;;;;;;4992058;28;20385;-77
2022/01/30 05:39:16;;;;;;;30.30;4.15;;;6.50;97.90;;;;;;4992703;28;20027;-77
2022/01/30 05:41:42;;;;;;;25.45;3.95;;;6.50;97.80;;;;;;4991905;28;20050;-76
2022/01/30 05:44:14;;;;;;;24.30;3.80;;;6.50;97.70;;;;;;4992126;28;20522;-78
2022/01/30 05:46:51;;;;;;;29.00;4.90;;;6.50;97.50;;;;;;4992099;28;20030;-77
2022/01/30 05:49:17;;;;;;;32.92;5.40;;;6.50;97.30;;;;;;4992312;28;20069;-76
2022/01/30 05:51:42;;;;;;;25.90;3.75;;;6.50;97.00;;;;;;4992105;28;20238;-75
2022/01/30 05:54:08;;;;;;;26.67;4.05;;;6.50;96.90;;;;;;4992417;28;20026;-78
2022/01/30 05:56:35;;;;;;;26.95;4.05;;;6.50;96.70;;;;;;4990776;28;20472;-78
2022/01/30 05:59:01;;;;;;;34.40;4.75;;;6.40;96.50;;;;;;4992028;28;20042;-78
2022/01/30 06:01:27;;;;;;;38.75;5.30;;;6.40;96.50;;;;;;4991694;28;20621;-77
2022/01/30 06:03:52;;;;;;;36.33;4.72;;;6.50;96.50;;;;;;4991598;28;20061;-76
2022/01/30 06:06:18;;;;;;;41.45;5.32;;;6.40;96.50;;;;;;4992178;28;20564;-77
2022/01/30 06:08:58;;;;;;;44.55;5.80;;;6.40;96.70;;;;;;4991747;28;20031;-78
2022/01/30 06:11:25;;;;;;;39.60;5.88;;;6.50;96.80;;;;;;4991508;28;20457;-76
2022/01/30 06:13:50;;;;;;;29.08;4.57;;;6.40;97.00;;;;;;4991761;28;20035;-77
2022/01/30 06:16:16;;;;;;;39.10;5.65;;;6.40;97.00;;;;;;4991789;28;20057;-77
2022/01/30 06:18:43;;;;;;;34.35;5.53;;;6.40;97.10;;;;;;4991906;28;20385;-77
2022/01/30 06:21:09;;;;;;;39.40;6.43;;;6.40;97.20;;;;;;4992361;28;20041;-77
2022/01/30 06:23:36;;;;;;;46.08;5.60;;;6.30;97.50;;;;;;4991639;28;20034;-78
2022/01/30 06:26:02;;;;;;;44.55;6.15;;;6.30;97.50;;;;;;4991662;28;20031;-77
2022/01/30 06:28:28;;;;;;;36.45;5.72;;;6.30;97.60;;;;;;4994947;28;20094;-78
2022/01/30 06:30:53;;;;;;;31.30;4.75;;;6.30;97.60;;;;;;4994139;28;20505;-76
2022/01/30 06:33:19;;;;;;;35.08;7.75;;;6.20;97.60;;;;;;4995753;28;20018;-78
2022/01/30 06:35:46;;;;;;;31.88;5.03;;;6.20;97.40;;;;;;4995509;28;20054;-78
2022/01/30 06:38:12;;;;;;;44.30;5.40;;;6.30;97.20;;;;;;4995581;28;20035;-78
2022/01/30 06:40:38;;;;;;;34.47;4.85;;;6.30;97.10;;;;;;4995441;28;20513;-78
2022/01/30 06:43:03;;;;;;;35.47;5.65;;;6.30;97.00;;;;;;4995340;28;20042;-77
2022/01/30 06:45:29;;;;;;;32.65;4.82;;;6.20;96.80;;;;;;4995422;28;20061;-77
2022/01/30 06:47:55;;;;;;;46.47;5.50;;;6.30;96.80;;;;;;4995689;28;20050;-78
2022/01/30 06:50:20;;;;;;;44.35;5.18;;;6.20;96.70;;;;;;4994114;28;20041;-79
2022/01/30 06:52:46;;;;;;;42.03;5.65;;;6.20;96.80;;;;;;4991585;28;20050;-79
2022/01/30 06:55:11;;;;;;;40.38;5.28;;;6.20;96.70;;;;;;4956408;28;20039;-77
2022/01/30 06:57:44;;;;;;;40.67;6.18;;;6.10;96.70;;;;;;4956480;28;20024;-77
2022/01/30 07:00:11;;;;;;;36.40;7.22;;;6.20;96.60;;;;;;4956622;28;20030;-76
2022/01/30 07:02:37;;;;;;;47.55;7.00;;;6.20;96.50;;;;;;4973803;28;20038;-77
2022/01/30 07:05:03;;;;;;;38.80;5.50;;;6.20;96.40;;;;;;4975370;28;20595;-78
2022/01/30 07:07:29;;;;;;;41.03;6.20;;;6.20;96.40;;;;;;4975298;28;20042;-76
2022/01/30 07:09:55;;;;;;;47.90;5.97;;;6.20;96.40;;;;;;4975389;28;20042;-77
2022/01/30 07:12:20;;;;;;;44.75;5.68;;;6.30;96.40;;;;;;4972972;28;20058;-77
2022/01/30 07:14:46;;;;;;;37.88;6.07;;;6.30;96.20;;;;;;4975670;28;20046;-79
2022/01/30 07:17:12;;;;;;;37.97;6.25;;;6.40;96.20;;;;;;4971232;28;20517;-78
2022/01/30 07:19:37;;;;;;;50.22;6.50;;;6.40;96.10;;;;;;4966087;28;20381;-78
2022/01/30 07:22:03;;;;;;;57.08;6.18;;;6.40;96.00;;;;;;4975337;28;20035;-77
2022/01/30 07:24:29;;;;;;;41.28;6.32;;;6.40;95.80;;;;;;4975188;28;20578;-78
2022/01/30 07:26:54;;;;;;;33.72;5.55;;;6.40;95.90;;;;;;5006571;28;20035;-78
2022/01/30 07:29:20;;;;;;;42.47;5.97;;;6.30;95.70;;;;;;4975066;28;20110;-77
2022/01/30 07:31:45;;;;;;;32.75;5.15;;;6.40;95.80;;;;;;4975000;28;20023;-76
2022/01/30 07:34:11;;;;;;;40.25;5.90;;;6.40;95.50;;;;;;4974951;28;20101;-76
2022/01/30 07:36:37;;;;;;;48.53;6.18;;;6.50;95.30;;;;;;5006716;28;20073;-77
2022/01/30 07:39:07;;;;;;;46.10;6.07;;;6.50;95.10;;;;;;4974346;28;20030;-77
2022/01/30 07:41:33;;;;;;;50.42;6.05;;;6.50;94.90;;;;;;4975084;28;20046;-77
2022/01/30 07:44:03;;;;;;;40.92;5.40;;;6.50;94.90;;;;;;4974990;28;20030;-77
2022/01/30 07:46:29;;;;;;;49.35;5.80;;;6.50;94.80;;;;;;4973716;28;20385;-76
2022/01/30 07:48:55;;;;;;;32.45;5.55;;;6.60;94.70;;;;;;4974831;28;20046;-76
2022/01/30 07:51:21;;;;;;;38.03;6.28;;;6.70;94.60;;;;;;4975311;28;20065;-77
2022/01/30 07:53:47;;;;;;;36.65;5.13;;;6.70;94.50;;;;;;4974785;28;20038;-76
2022/01/30 07:56:12;;;;;;;35.40;5.60;;;6.80;94.50;;;;;;4974387;28;20065;-75
2022/01/30 07:58:38;;;;;;;52.00;6.68;;;6.90;94.50;;;;;;4970362;28;20031;-75
2022/01/30 08:01:04;;;;;;;33.90;5.97;;;6.90;94.10;;;;;;4960544;28;20035;-77
2022/01/30 08:03:30;;;;;;;44.17;6.80;;;6.80;94.20;;;;;;4974435;28;20026;-76
2022/01/30 08:05:55;;;;;;;40.47;6.47;;;6.90;94.10;;;;;;4974942;28;20077;-76
2022/01/30 08:08:22;;;;;;;42.15;6.00;;;6.90;94.00;;;;;;4974572;28;20050;-75
2022/01/30 08:10:48;;;;;;;34.38;4.95;;;6.90;93.80;;;;;;4974443;28;20457;-79
2022/01/30 08:13:15;;;;;;;43.58;6.45;;;7.00;93.80;;;;;;4974705;28;20046;-84
2022/01/30 08:15:41;;;;;;;45.97;5.95;;;7.00;93.30;;;;;;5006175;28;20094;-83
2022/01/30 08:18:07;;;;;;;45.20;5.47;;;7.00;93.00;;;;;;4975198;28;20066;-82
2022/01/30 08:20:33;;;;;;;29.27;4.82;;;7.10;92.70;;;;;;4974718;28;20078;-81
2022/01/30 08:23:00;;;;;;;34.67;5.03;;;7.10;92.10;;;;;;4974234;28;20026;-79
2022/01/30 08:25:26;;;;;;;35.65;5.35;;;7.10;92.20;;;;;;4974154;28;20465;-81
2022/01/30 08:27:53;;;;;;;39.60;5.60;;;7.20;91.80;;;;;;4970052;28;20106;-78
2022/01/30 08:30:19;;;;;;;48.45;5.00;;;7.20;91.60;;;;;;4970521;28;20031;-79
2022/01/30 08:32:48;;;;;;;36.10;5.15;;;7.10;91.30;;;;;;4973415;28;20101;-79
2022/01/30 08:35:16;;;;;;;40.47;6.32;;;7.20;91.30;;;;;;4977475;28;20075;-78
2022/01/30 08:37:42;;;;;;;37.95;5.63;;;7.30;91.00;;;;;;4973327;28;20031;-79
2022/01/30 08:40:10;;;;;;;37.97;4.95;;;7.30;90.30;;;;;;4974848;28;20027;-79
2022/01/30 08:42:36;;;;;;;34.17;5.03;;;7.30;90.00;;;;;;4980427;28;20038;-78
2022/01/30 08:45:03;;;;;;;39.80;5.28;;;7.20;90.00;;;;;;4994197;28;20018;-75
2022/01/30 08:47:29;;;;;;;39.95;5.00;;;7.30;89.30;;;;;;4994243;28;20023;-77
2022/01/30 08:49:54;;;;;;;27.90;5.10;;;7.40;88.70;;;;;;4992293;28;20070;-77
2022/01/30 08:52:20;;;;;;;35.72;4.97;;;7.30;88.70;;;;;;4993769;28;20026;-76
2022/01/30 08:54:48;;;;;;;28.23;4.55;;;7.40;88.10;;;;;;4993914;28;20030;-74
2022/01/30 08:57:14;;;;;;;32.72;4.43;;;7.40;87.40;;;;;;4994039;28;20062;-83
2022/01/30 08:59:39;;;;;;;31.05;4.47;;;7.40;87.60;;;;;;4994428;28;20418;-75
2022/01/30 09:02:05;;;;;;;36.25;5.60;;;7.50;87.50;;;;;;4993720;28;20121;-75
2022/01/30 09:04:30;;;;;;;39.47;5.22;;;7.50;87.30;;;;;;4993388;28;20125;-76
2022/01/30 09:06:56;;;;;;;32.35;4.95;;;7.50;87.30;;;;;;4993558;28;20043;-76
2022/01/30 09:09:22;;;;;;;40.55;5.15;;;7.50;87.70;;;;;;4993497;28;20460;-75
2022/01/30 09:11:47;;;;;;;32.72;5.15;;;7.50;87.90;;;;;;4980966;28;20688;-77
2022/01/30 09:14:14;;;;;;;37.13;5.88;;;7.50;88.60;;;;;;4974248;28;20037;-77
2022/01/30 09:16:40;;;;;;;41.78;5.85;;;7.60;89.00;;;;;;4973610;28;20041;-76
2022/01/30 09:19:06;;;;;;;31.65;4.40;;;7.50;89.30;;;;;;4969677;28;20039;-73
2022/01/30 09:21:31;;;;;;;33.67;5.45;;;7.60;89.50;;;;;;4960380;28;20050;-76
2022/01/30 09:23:57;;;;;;;34.15;5.22;;;7.50;89.10;;;;;;4972492;28;20034;-78
2022/01/30 09:26:23;;;;;;;35.95;5.65;;;7.50;89.20;;;;;;4973795;28;20189;-74
2022/01/30 09:28:48;;;;;;;47.92;6.28;;;7.50;89.60;;;;;;4973223;28;20023;-76
2022/01/30 09:31:14;;;;;;;41.85;5.95;;;7.60;89.50;;;;;;4973289;28;20058;-76
2022/01/30 09:33:40;;;;;;;27.67;5.32;;;7.70;89.70;;;;;;4973368;28;20053;-76
2022/01/30 09:36:06;;;;;;;36.97;5.47;;;7.70;90.00;;;;;;4972507;28;20422;-77
2022/01/30 09:38:33;;;;;;;42.35;6.13;;;7.90;89.20;;;;;;4974037;28;20054;-78
2022/01/30 09:40:59;;;;;;;40.05;5.70;;;7.90;88.90;;;;;;4973757;28;20463;-76
2022/01/30 09:43:27;;;;;;;37.47;5.80;;;7.80;88.80;;;;;;4973433;28;20041;-79
2022/01/30 09:45:53;;;;;;;;;;;7.90;88.20;;;;;;4972805;28;20035;-78
2022/01/30 09:48:21;;;;;;;28.55;4.55;;;8.00;88.40;;;;;;4973407;28;19921;-79
2022/01/30 09:50:47;;;;;;;40.38;4.60;;;8.10;87.70;;;;;;4973402;28;20041;-76
2022/01/30 09:53:13;;;;;;;30.13;4.78;;;8.00;87.00;;;;;;4973329;28;20031;-76
2022/01/30 09:55:39;;;;;;;36.80;5.38;;;8.00;86.80;;;;;;4952676;28;20489;-76
2022/01/30 09:58:05;;;;;;;31.75;4.70;;;8.00;86.60;;;;;;4954331;28;20124;-78
2022/01/30 10:00:31;;;;;;;35.85;4.93;;;7.90;85.60;;;;;;4954496;28;20426;-77
2022/01/30 10:02:57;;;;;;;48.00;6.00;;;8.00;85.50;;;;;;4953441;28;20035;-77
2022/01/30 10:05:22;;;;;;;32.22;5.30;;;8.00;85.90;;;;;;4954523;28;20027;-78
2022/01/30 10:07:52;;;;;;;35.55;6.22;;;7.90;85.80;;;;;;4953035;28;20035;-78
2022/01/30 10:10:22;;;;;;;40.63;6.60;;;7.90;85.40;;;;;;4953936;28;20370;-74
2022/01/30 10:13:02;;;;;;;38.00;5.35;;;7.90;85.80;;;;;;4969098;28;20031;-76
2022/01/30 10:15:28;;;;;;;38.05;5.88;;;8.00;86.30;;;;;;4953871;28;20027;-77
2022/01/30 10:17:54;;;;;;;38.22;5.47;;;8.00;85.80;;;;;;4954001;28;20122;-77
2022/01/30 10:20:22;;;;;;;28.75;4.43;;;8.10;86.10;;;;;;4953405;29;20118;-77
2022/01/30 10:22:49;;;;;;;36.95;5.68;;;8.20;85.90;;;;;;4953996;28;20050;-75
2022/01/30 10:25:26;;;;;;;29.85;4.88;;;8.00;84.80;;;;;;4953800;28;20063;-75
2022/01/30 10:28:10;;;;;;;42.30;5.68;;;8.10;84.80;;;;;;4953537;28;20040;-75
2022/01/30 10:30:50;;;;;;;38.45;5.70;;;8.10;84.80;;;;;;4969203;28;20035;-75
2022/01/30 10:33:18;;;;;;;36.50;5.43;;;8.20;85.50;;;;;;4953543;28;20041;-77
2022/01/30 10:35:52;;;;;;;;;;;8.20;85.10;;;;;;4954665;28;20117;-76
2022/01/30 10:38:32;;;;;;;34.33;4.85;;;8.30;85.00;;;;;;4953626;29;19910;-74
2022/01/30 10:40:59;;;;;;;41.47;5.68;;;8.20;84.60;;;;;;4953726;28;20107;-77
2022/01/30 10:43:50;;;;;;;47.88;6.18;;;8.30;84.60;;;;;;4953844;28;20035;-76
2022/01/30 10:46:21;;;;;;;32.55;5.32;;;8.30;84.50;;;;;;4968974;28;20122;-77
2022/01/30 10:48:57;;;;;;;30.88;7.63;;;8.30;84.60;;;;;;4953800;28;20035;-76
2022/01/30 10:51:24;;;;;;;34.58;6.82;;;8.30;84.70;;;;;;4963620;28;20030;-76
2022/01/30 10:53:51;;;;;;;53.42;5.78;;;8.10;84.90;;;;;;4972669;28;20575;-76
2022/01/30 10:56:21;;;;;;;39.60;5.30;;;8.20;84.70;;;;;;4973215;28;20106;-76
2022/01/30 10:59:10;;;;;;;40.20;5.78;;;8.20;85.30;;;;;;4973316;28;20469;-78
2022/01/30 11:01:47;;;;;;;37.00;5.93;;;8.20;85.20;;;;;;4972972;28;20496;-76
2022/01/30 11:04:24;;;;;;;41.00;7.03;;;8.30;85.20;;;;;;4971686;28;20035;-77
2022/01/30 11:06:51;;;;;;;36.17;5.60;;;8.30;85.10;;;;;;4972941;28;20073;-75
2022/01/30 11:09:23;;;;;;;43.80;7.43;;;8.30;85.30;;;;;;4971464;28;20534;-75
2022/01/30 11:12:02;;;;;;;44.63;5.57;;;8.30;85.70;;;;;;4972773;28;20030;-76
2022/01/30 11:17:16;;;;;;;38.88;6.47;;;8.40;86.60;;;;;;4976282;28;20042;-76
2022/01/30 11:19:43;;;;;;;42.30;6.30;;;8.40;85.80;;;;;;4975456;28;20039;-75
2022/01/30 11:22:12;;;;;;;58.92;9.77;;;8.40;85.80;;;;;;4976139;28;20066;-76
2022/01/30 11:24:46;;;;;;;43.50;6.03;;;8.30;86.00;;;;;;4975786;28;20038;-76
2022/01/30 11:27:12;;;;;;;39.80;6.03;;;8.30;86.50;;;;;;4979192;28;20042;-77
2022/01/30 11:29:38;;;;;;;46.17;7.07;;;8.20;86.50;;;;;;4995818;28;20022;-76
2022/01/30 11:32:06;;;;;;;40.08;6.45;;;8.20;86.90;;;;;;4995493;28;20039;-79
2022/01/30 11:34:37;;;;;;;39.15;6.68;;;8.20;87.20;;;;;;4995363;28;20365;-78
2022/01/30 11:37:04;;;;;;;48.20;7.22;;;8.30;87.70;;;;;;4984965;28;20035;-78
2022/01/30 11:39:30;;;;;;;56.45;7.60;;;8.30;87.50;;;;;;4975031;28;20027;-80
2022/01/30 11:42:21;;;;;;;36.65;6.50;;;8.40;87.30;;;;;;4975127;28;20026;-81
2022/01/30 11:44:49;;;;;;;33.33;6.30;;;8.30;87.20;;;;;;4974715;28;20125;-77
2022/01/30 11:47:15;;;;;;;47.42;6.60;;;8.30;87.10;;;;;;4975213;28;20386;-81
2022/01/30 11:50:04;;;;;;;40.28;6.63;;;8.40;87.20;;;;;;4975848;28;20027;-79
2022/01/30 11:53:06;;;;;;;40.20;6.93;;;8.30;86.70;;;;;;4975424;28;20477;-79
2022/01/30 11:56:00;;;;;;;45.42;7.15;;;8.20;86.70;;;;;;4987530;28;20338;-80
2022/01/30 11:58:45;;;;;;;50.95;7.40;;;8.20;86.10;;;;;;4994763;28;20031;-80
2022/01/30 12:01:27;;;;;;;43.92;7.03;;;8.40;85.90;;;;;;4994857;28;20030;-78
2022/01/30 12:03:59;;;;;;;42.67;7.07;;;8.40;84.80;;;;;;4995414;28;20031;-81
2022/01/30 12:06:25;;;;;;;41.90;6.28;;;8.40;84.10;;;;;;4994874;28;20030;-78
2022/01/30 12:08:51;;;;;;;40.67;6.10;;;8.30;82.90;;;;;;4994389;28;20022;-78
2022/01/30 12:11:37;;;;;;;48.28;7.53;;;8.50;82.50;;;;;;4995358;28;20057;-81
2022/01/30 12:14:23;;;;;;;46.65;7.35;;;8.40;82.00;;;;;;4990601;28;20019;-80
2022/01/30 12:16:51;;;;;;;37.88;6.55;;;8.40;82.10;;;;;;4994266;28;20486;-79
2022/01/30 12:20:09;;;;;;;;;;;8.30;81.70;;;;;;4982605;28;20134;-77
2022/01/30 12:22:29;;;;;;;45.60;7.32;;;8.30;81.90;;;;;;4975441;28;19925;-82
2022/01/30 12:25:30;;;;;;;36.33;6.45;;;8.50;82.00;;;;;;4978613;28;20123;-78
2022/01/30 12:27:59;;;;;;;45.28;6.38;;;8.40;81.70;;;;;;4975624;28;20050;-83
2022/01/30 12:30:36;;;;;;;40.80;5.93;;;8.60;81.50;;;;;;4979680;28;20145;-78
2022/01/30 12:33:22;;;;;;;32.80;5.32;;;8.40;81.30;;;;;;4986273;28;20700;-78
2022/01/30 12:35:48;;;;;;;32.80;5.57;;;8.50;81.40;;;;;;4974440;28;20103;-77
2022/01/30 12:38:13;;;;;;;45.50;6.63;;;8.30;80.70;;;;;;4975152;28;20067;-78
2022/01/30 12:40:45;;;;;;;36.13;5.53;;;8.30;80.70;;;;;;4974594;28;20500;-75
2022/01/30 12:43:10;;;;;;;46.08;6.35;;;8.50;81.30;;;;;;4970258;28;20382;-79
2022/01/30 12:45:36;;;;;;;37.55;5.80;;;8.40;81.40;;;;;;4961835;28;20038;-76
2022/01/30 12:48:08;;;;;;;48.42;6.20;;;8.50;81.40;;;;;;4973847;28;20127;-75
2022/01/30 12:50:36;;;;;;;51.97;7.03;;;8.50;81.10;;;;;;4973810;28;20019;-79
2022/01/30 12:53:02;;;;;;;41.17;6.70;;;8.30;80.80;;;;;;4974479;28;20031;-78
2022/01/30 12:55:31;;;;;;;40.33;6.32;;;8.40;81.30;;;;;;4973031;28;20062;-80
2022/01/30 12:57:58;;;;;;;40.70;5.22;;;8.20;80.50;;;;;;4974505;28;20085;-82
2022/01/30 13:00:24;;;;;;;41.60;5.97;;;8.30;80.60;;;;;;4969906;28;20027;-76
2022/01/30 13:02:57;;;;;;;38.25;5.10;;;8.40;80.50;;;;;;4955216;28;20038;-77
2022/01/30 13:05:25;;;;;;;39.22;6.10;;;8.50;80.50;;;;;;4974750;28;20067;-80
2022/01/30 13:07:56;;;;;;;38.38;5.40;;;8.50;80.20;;;;;;4989401;28;20031;-76
2022/01/30 13:10:23;;;;;;;38.92;6.25;;;8.50;80.40;;;;;;4973997;28;20041;-76
2022/01/30 13:12:50;;;;;;;46.40;5.90;;;8.50;80.50;;;;;;4973784;28;20027;-77
2022/01/30 13:15:19;;;;;;;41.88;5.95;;;8.50;80.70;;;;;;4974067;28;20107;-78
2022/01/30 13:17:45;;;;;;;40.67;5.78;;;8.50;80.40;;;;;;4974068;28;20170;-77
2022/01/30 13:20:12;;;;;;;48.15;6.85;;;8.60;80.90;;;;;;4973608;28;20043;-79
2022/01/30 13:22:40;;;;;;;44.45;7.05;;;8.50;80.90;;;;;;4988539;28;20031;-77
2022/01/30 13:25:10;;;;;;;;;;;8.50;81.50;;;;;;4974156;28;20026;-75
2022/01/30 13:27:37;;;;;;;33.33;5.60;;;8.40;81.80;;;;;;4973161;28;19914;-84
2022/01/30 13:30:03;;;;;;;48.90;6.85;;;8.40;82.20;;;;;;4972603;28;20125;-77
2022/01/30 13:32:29;;;;;;;36.58;6.03;;;8.70;82.30;;;;;;4973130;28;20481;-76
2022/01/30 13:34:57;;;;;;;42.75;6.38;;;8.70;81.30;;;;;;4972437;28;20087;-78
2022/01/30 13:37:23;;;;;;;36.50;5.82;;;8.50;80.20;;;;;;4973364;28;20031;-77
2022/01/30 13:42:47;;;;;;;31.67;4.80;;;8.60;79.20;;;;;;4973830;28;20034;-77
2022/01/30 13:48:17;;;;;;;41.85;6.68;;;8.60;79.10;;;;;;4957138;28;20414;-81
2022/01/30 13:50:49;;;;;;;34.78;6.13;;;8.70;82.20;;;;;;4989057;28;20536;-80
2022/01/30 13:53:20;;;;;;;37.45;6.85;;;8.80;80.80;;;;;;4954158;28;20035;-78
2022/01/30 13:55:58;;;;;;;25.23;5.25;;;8.70;78.60;;;;;;4954209;28;20043;-82